Time;durP1;ratioP1;P1;durP2;ratioP2;P2;SDS_P1;SDS_P2;PMS_P1;PMS_P2;Temp;Humidity;BMP_temperature;BMP_pressure;BME280_temperature;BME280_humidity;BME280_pressure;Samples;Min_cycle;Max_cycle;Signal;HPM_P1;HPM_P2
2022/09/15 00:00:24;;;;;;;9.33;3.60;;;13.70;89.20;;;;;;5031673;28;20311;-89
2022/09/15 00:02:49;;;;;;;6.57;3.10;;;13.70;89.60;;;;;;5031705;28;20177;-88
2022/09/15 00:05:15;;;;;;;8.80;3.87;;;13.70;89.70;;;;;;5035624;28;20211;-88
2022/09/15 00:07:42;;;;;;;9.47;3.57;;;13.80;89.80;;;;;;5036100;28;20278;-88
2022/09/15 00:10:09;;;;;;;4.37;3.30;;;13.70;90.00;;;;;;5035059;28;20227;-88
2022/09/15 00:12:34;;;;;;;10.83;3.30;;;13.70;90.10;;;;;;5035077;28;20567;-89
2022/09/15 00:15:00;;;;;;;7.13;3.00;;;13.80;90.20;;;;;;5034959;28;20179;-88
2022/09/15 00:17:26;;;;;;;5.43;3.57;;;13.80;90.20;;;;;;5036081;28;20207;-88
2022/09/15 00:19:52;;;;;;;7.50;3.50;;;13.80;90.20;;;;;;5034949;28;20180;-88
2022/09/15 00:22:19;;;;;;;4.97;2.90;;;13.80;90.20;;;;;;5034978;28;20705;-89
2022/09/15 00:24:48;;;;;;;6.10;2.80;;;13.80;90.30;;;;;;5034885;28;20203;-88
2022/09/15 00:27:14;;;;;;;8.03;3.30;;;13.80;90.30;;;;;;5036079;28;20205;-88
2022/09/15 00:29:40;;;;;;;7.47;2.67;;;13.80;90.50;;;;;;5034709;28;20184;-88
2022/09/15 00:32:05;;;;;;;7.43;2.90;;;13.80;90.50;;;;;;5035951;28;20173;-88
2022/09/15 00:34:31;;;;;;;10.97;2.73;;;13.90;90.50;;;;;;5034597;28;20177;-88
2022/09/15 00:36:56;;;;;;;8.33;3.30;;;13.90;90.50;;;;;;5034554;28;20197;-88
2022/09/15 00:39:22;;;;;;;7.53;3.17;;;13.90;90.50;;;;;;5034461;28;20242;-88
2022/09/15 00:41:47;;;;;;;9.50;3.00;;;13.80;90.60;;;;;;5034714;28;20558;-88
2022/09/15 00:44:15;;;;;;;10.03;3.73;;;13.80;90.60;;;;;;5035555;28;20173;-88
2022/09/15 00:46:45;;;;;;;11.00;2.73;;;13.80;90.60;;;;;;5034145;28;20212;-88
2022/09/15 00:49:21;;;;;;;5.70;2.90;;;13.90;90.60;;;;;;5035485;28;20527;-88
2022/09/15 00:52:05;;;;;;;8.03;4.13;;;13.80;90.50;;;;;;5035929;28;20169;-88
2022/09/15 00:54:52;;;;;;;4.50;2.83;;;13.80;90.60;;;;;;5034310;28;20550;-88
2022/09/15 00:57:29;;;;;;;8.80;3.03;;;13.80;90.70;;;;;;5034158;28;20239;-88
2022/09/15 00:59:58;;;;;;;11.33;3.27;;;13.80;90.60;;;;;;5035318;28;20172;-87
2022/09/15 01:02:31;;;;;;;8.13;3.10;;;13.80;90.60;;;;;;5034080;28;20769;-87
2022/09/15 01:04:58;;;;;;;4.07;3.03;;;13.80;90.70;;;;;;5035363;28;20165;-88
2022/09/15 01:07:46;;;;;;;5.97;2.70;;;13.80;90.70;;;;;;5035280;28;20207;-87
2022/09/15 01:10:26;;;;;;;8.83;2.93;;;13.80;90.60;;;;;;5035203;28;20157;-88
2022/09/15 01:12:56;;;;;;;7.03;3.10;;;13.80;90.70;;;;;;5035624;28;20615;-87
2022/09/15 01:15:27;;;;;;;11.20;3.23;;;13.80;90.70;;;;;;5033164;28;20185;-88
2022/09/15 01:18:15;;;;;;;7.47;2.97;;;13.80;90.80;;;;;;5033777;28;20209;-88
2022/09/15 01:21:04;;;;;;;9.13;3.07;;;13.90;90.70;;;;;;5035181;28;20283;-88
2022/09/15 01:24:07;;;;;;;9.27;3.27;;;13.90;90.70;;;;;;5035208;28;20200;-87
2022/09/15 01:26:47;;;;;;;6.83;3.67;;;14.00;90.80;;;;;;5033432;28;20208;-88
2022/09/15 01:29:32;;;;;;;10.40;3.00;;;14.00;90.90;;;;;;5033677;28;20662;-88
2022/09/15 01:35:08;;;;;;;8.40;2.70;;;14.10;90.80;;;;;;5034980;28;20159;-88
2022/09/15 01:37:38;;;;;;;9.13;3.37;;;14.10;90.80;;;;;;5033240;28;20204;-88
2022/09/15 01:40:07;;;;;;;6.53;2.87;;;14.10;90.80;;;;;;5034435;28;20188;-87
2022/09/15 01:42:35;;;;;;;10.90;3.77;;;14.10;90.80;;;;;;5033498;28;20177;-88
2022/09/15 01:45:07;;;;;;;13.70;3.33;;;14.10;90.80;;;;;;5034451;28;20639;-88
2022/09/15 01:47:34;;;;;;;7.27;2.83;;;14.10;90.80;;;;;;5033077;28;20235;-88
2022/09/15 01:50:12;;;;;;;8.67;3.43;;;14.10;90.70;;;;;;5033130;28;20726;-87
2022/09/15 01:52:42;;;;;;;7.07;3.20;;;14.10;90.70;;;;;;5033095;28;20176;-87
2022/09/15 01:55:18;;;;;;;9.97;3.20;;;14.10;90.60;;;;;;5032925;28;20362;-88
2022/09/15 01:57:44;;;;;;;7.63;3.30;;;14.10;90.50;;;;;;5033395;28;20641;-88
2022/09/15 02:00:12;;;;;;;12.83;3.70;;;14.10;90.50;;;;;;5033060;28;20222;-89
2022/09/15 02:02:43;;;;;;;11.00;3.13;;;14.20;90.50;;;;;;5034425;28;20187;-88
2022/09/15 02:05:36;;;;;;;12.17;3.20;;;14.20;90.60;;;;;;5033179;28;20207;-88
2022/09/15 02:08:23;;;;;;;10.90;3.20;;;14.10;90.70;;;;;;5034649;28;20201;-89
2022/09/15 02:10:59;;;;;;;12.33;3.47;;;14.10;90.80;;;;;;5034192;28;20153;-89
2022/09/15 02:13:50;;;;;;;9.07;3.23;;;14.10;90.80;;;;;;5033018;28;20168;-89
2022/09/15 02:16:22;;;;;;;10.83;3.43;;;14.10;90.90;;;;;;5032861;28;20231;-89
2022/09/15 02:19:01;;;;;;;14.87;3.43;;;14.00;91.10;;;;;;5033056;28;20219;-91
2022/09/15 02:21:45;;;;;;;14.00;2.57;;;13.90;91.60;;;;;;5032564;28;20172;-89
2022/09/15 02:24:17;;;;;;;10.37;3.00;;;13.80;91.20;;;;;;5032658;28;20173;-89
2022/09/15 02:26:45;;;;;;;8.07;4.13;;;13.90;91.10;;;;;;5032657;28;20219;-89
2022/09/15 02:29:16;;;;;;;7.87;2.57;;;13.90;91.10;;;;;;5032615;28;20184;-89
2022/09/15 02:31:44;;;;;;;11.77;2.30;;;13.90;91.10;;;;;;5033083;28;20200;-89
2022/09/15 02:34:21;;;;;;;8.30;2.77;;;13.90;91.20;;;;;;5032565;28;20631;-89
2022/09/15 02:36:49;;;;;;;13.80;3.90;;;13.90;91.20;;;;;;5032475;28;20212;-89
2022/09/15 02:39:19;;;;;;;6.37;2.30;;;13.90;91.30;;;;;;5032482;28;20209;-90
2022/09/15 02:41:45;;;;;;;12.53;2.87;;;14.00;91.40;;;;;;5032482;28;20226;-89
2022/09/15 02:44:10;;;;;;;13.20;2.87;;;14.00;91.40;;;;;;5032575;28;20263;-90
2022/09/15 02:46:38;;;;;;;7.47;2.23;;;14.00;91.50;;;;;;5033602;28;20204;-89
2022/09/15 02:49:03;;;;;;;8.30;2.53;;;13.90;91.50;;;;;;5032563;28;20176;-90
2022/09/15 02:51:29;;;;;;;10.77;2.60;;;13.90;91.60;;;;;;5032330;28;20276;-90
2022/09/15 02:53:55;;;;;;;9.07;1.93;;;13.90;91.60;;;;;;5032667;28;20272;-90
2022/09/15 02:56:21;;;;;;;9.60;2.37;;;13.90;91.70;;;;;;5032261;28;20737;-88
2022/09/15 02:58:46;;;;;;;11.60;2.57;;;13.90;91.80;;;;;;5032169;28;20267;-88
2022/09/15 03:01:16;;;;;;;12.27;2.60;;;13.80;91.80;;;;;;5032421;28;20177;-88
2022/09/15 03:03:44;;;;;;;9.10;1.87;;;13.70;91.60;;;;;;5033110;28;20176;-89
2022/09/15 03:06:16;;;;;;;13.17;2.47;;;13.60;91.60;;;;;;5031909;28;20212;-89
2022/09/15 03:08:48;;;;;;;9.43;2.43;;;13.60;91.50;;;;;;5032089;28;20173;-89
2022/09/15 03:11:14;;;;;;;10.23;2.70;;;13.60;91.60;;;;;;5032122;28;20631;-90
2022/09/15 03:13:40;;;;;;;6.17;1.93;;;13.60;91.60;;;;;;5032034;28;20260;-89
2022/09/15 03:16:10;;;;;;;4.77;1.83;;;13.70;91.70;;;;;;5031887;28;20207;-89
2022/09/15 03:18:37;;;;;;;15.77;2.70;;;13.70;91.70;;;;;;5033201;28;20177;-90
2022/09/15 03:21:04;;;;;;;10.87;3.27;;;13.70;91.80;;;;;;5032127;28;20204;-89
2022/09/15 03:23:30;;;;;;;11.33;2.40;;;13.80;91.80;;;;;;5032147;28;20184;-90
2022/09/15 03:25:58;;;;;;;9.97;2.63;;;13.70;91.90;;;;;;5031796;28;20207;-89
2022/09/15 03:28:24;;;;;;;8.60;2.50;;;13.70;92.00;;;;;;5033442;28;20194;-89
2022/09/15 03:30:49;;;;;;;9.93;2.83;;;13.70;92.10;;;;;;5032149;28;20203;-89
2022/09/15 03:33:15;;;;;;;12.03;2.60;;;13.70;92.10;;;;;;5032140;28;20259;-90
2022/09/15 03:35:40;;;;;;;12.33;3.60;;;13.70;92.20;;;;;;5031994;28;20581;-90
2022/09/15 03:38:06;;;;;;;12.20;3.10;;;13.70;92.20;;;;;;5032061;28;20260;-89
2022/09/15 03:40:32;;;;;;;10.37;4.27;;;13.70;92.30;;;;;;5034914;28;20203;-90
2022/09/15 03:42:58;;;;;;;8.03;2.70;;;13.70;92.40;;;;;;5035966;28;20681;-89
2022/09/15 03:45:24;;;;;;;7.70;2.43;;;13.60;92.50;;;;;;5035751;28;20181;-89
2022/09/15 03:47:49;;;;;;;13.70;2.87;;;13.60;92.60;;;;;;5035540;28;20208;-89
2022/09/15 03:50:15;;;;;;;9.60;2.87;;;13.70;92.70;;;;;;5035621;28;20524;-89
2022/09/15 03:52:40;;;;;;;10.77;2.53;;;13.60;92.70;;;;;;5035811;28;20176;-89
2022/09/15 03:55:06;;;;;;;12.40;2.93;;;13.70;92.70;;;;;;5035546;28;20196;-89
2022/09/15 03:57:32;;;;;;;9.73;2.87;;;13.60;92.60;;;;;;5035444;28;20204;-89
2022/09/15 03:59:57;;;;;;;11.77;2.57;;;13.60;92.60;;;;;;5035469;28;20215;-89
2022/09/15 04:02:23;;;;;;;9.50;2.23;;;13.60;92.60;;;;;;5036916;28;20177;-89
2022/09/15 04:04:48;;;;;;;13.83;2.70;;;13.50;92.30;;;;;;5036617;28;20651;-89
2022/09/15 04:07:14;;;;;;;9.47;1.93;;;13.50;92.10;;;;;;5035203;28;20231;-89
2022/09/15 04:09:40;;;;;;;10.37;2.40;;;13.40;91.70;;;;;;5035337;28;20714;-90
2022/09/15 04:12:06;;;;;;;11.37;2.13;;;13.50;91.60;;;;;;5035271;28;20177;-89
2022/09/15 04:14:32;;;;;;;8.70;3.17;;;13.40;91.20;;;;;;5035283;28;20264;-89
2022/09/15 04:16:57;;;;;;;7.50;2.17;;;13.40;91.20;;;;;;5036159;28;20201;-90
2022/09/15 04:19:23;;;;;;;10.10;2.10;;;13.40;91.10;;;;;;5035785;28;20185;-89
2022/09/15 04:21:48;;;;;;;11.67;2.00;;;13.40;91.00;;;;;;5035222;28;20235;-88
2022/09/15 04:24:14;;;;;;;8.17;1.97;;;13.40;90.90;;;;;;5035019;28;20180;-89
2022/09/15 04:26:40;;;;;;;11.53;2.23;;;13.40;90.70;;;;;;5035565;28;20239;-89
2022/09/15 04:29:12;;;;;;;14.87;2.53;;;13.30;90.40;;;;;;5034937;28;20212;-90
2022/09/15 04:31:37;;;;;;;11.53;2.13;;;13.40;90.20;;;;;;5035004;28;20176;-89
2022/09/15 04:34:03;;;;;;;11.10;3.13;;;13.40;90.00;;;;;;5035829;28;20177;-89
2022/09/15 04:36:30;;;;;;;9.00;2.53;;;13.40;89.70;;;;;;5035894;28;20197;-88
2022/09/15 04:38:57;;;;;;;8.97;1.87;;;13.40;89.70;;;;;;5035045;28;20216;-89
2022/09/15 04:41:24;;;;;;;9.93;2.10;;;13.40;89.70;;;;;;5034975;28;20187;-89
2022/09/15 04:43:50;;;;;;;7.10;1.90;;;13.40;89.50;;;;;;5034798;28;20173;-89
2022/09/15 04:46:17;;;;;;;10.00;2.00;;;13.40;89.60;;;;;;5034524;28;20713;-89
2022/09/15 04:48:44;;;;;;;8.50;2.00;;;13.40;89.40;;;;;;5034676;28;20183;-88
2022/09/15 04:51:13;;;;;;;12.07;2.17;;;13.40;89.10;;;;;;5034409;28;20196;-89
2022/09/15 04:53:40;;;;;;;16.77;3.57;;;13.30;89.00;;;;;;5035995;28;20230;-89
2022/09/15 04:56:09;;;;;;;9.40;2.07;;;13.40;88.90;;;;;;5035427;28;20188;-89
2022/09/15 04:58:47;;;;;;;10.27;2.40;;;13.40;88.80;;;;;;5034375;28;20255;-89
2022/09/15 05:01:15;;;;;;;6.90;1.80;;;13.40;88.60;;;;;;5034460;28;20203;-89
2022/09/15 05:03:41;;;;;;;11.80;3.07;;;13.40;88.30;;;;;;5034263;28;20218;-89
2022/09/15 05:06:10;;;;;;;13.83;1.77;;;13.40;88.40;;;;;;5034207;28;20205;-89
2022/09/15 05:08:36;;;;;;;12.90;2.70;;;13.40;88.40;;;;;;5034216;28;20251;-89
2022/09/15 05:11:05;;;;;;;9.20;2.07;;;13.40;88.30;;;;;;5034235;28;20224;-89
2022/09/15 05:13:31;;;;;;;10.53;2.27;;;13.30;88.20;;;;;;5034221;28;20175;-89
2022/09/15 05:16:10;;;;;;;11.33;1.97;;;13.40;88.30;;;;;;5034110;28;20291;-89
2022/09/15 05:18:37;;;;;;;9.20;1.87;;;13.30;88.20;;;;;;5034233;28;20197;-89
2022/09/15 05:21:04;;;;;;;16.20;2.20;;;13.30;88.10;;;;;;5034090;28;20722;-89
2022/09/15 05:23:30;;;;;;;10.53;2.00;;;13.30;88.10;;;;;;5034070;28;20181;-90
2022/09/15 05:25:58;;;;;;;3.47;1.37;;;13.30;88.00;;;;;;5034005;28;20201;-89
2022/09/15 05:28:24;;;;;;;11.27;2.23;;;13.30;88.00;;;;;;5033961;28;20172;-89
2022/09/15 05:30:53;;;;;;;10.00;1.63;;;13.20;87.90;;;;;;5034175;28;20211;-89
2022/09/15 05:33:20;;;;;;;12.70;2.10;;;13.20;88.00;;;;;;5033821;28;20176;-89
2022/09/15 05:35:59;;;;;;;14.33;2.30;;;13.20;88.10;;;;;;5035102;28;20204;-89
2022/09/15 05:38:27;;;;;;;11.20;1.83;;;13.30;88.10;;;;;;5033616;28;20646;-89
2022/09/15 05:40:52;;;;;;;12.17;2.20;;;13.20;88.20;;;;;;5033531;28;20180;-89
2022/09/15 05:43:19;;;;;;;7.83;2.23;;;13.30;87.80;;;;;;5035024;28;20181;-90
2022/09/15 05:45:53;;;;;;;12.57;2.67;;;13.30;87.60;;;;;;5033390;28;20173;-89
2022/09/15 05:48:19;;;;;;;8.80;2.40;;;13.30;87.30;;;;;;5033474;28;20539;-89
2022/09/15 05:50:53;;;;;;;9.23;2.10;;;13.30;87.30;;;;;;5033515;28;20179;-89
2022/09/15 05:53:19;;;;;;;10.50;2.23;;;13.30;87.40;;;;;;5033497;28;20259;-90
2022/09/15 05:55:45;;;;;;;10.10;2.10;;;13.20;87.40;;;;;;5034173;28;20173;-89
2022/09/15 05:58:11;;;;;;;9.27;1.93;;;13.20;87.50;;;;;;5034855;28;20172;-89
2022/09/15 06:00:37;;;;;;;9.70;2.00;;;13.20;87.60;;;;;;5033331;28;20554;-89
2022/09/15 06:03:03;;;;;;;12.20;2.17;;;13.20;87.50;;;;;;5032570;28;20176;-87
2022/09/15 06:05:28;;;;;;;12.17;2.63;;;13.30;87.60;;;;;;5034026;28;20180;-89
2022/09/15 06:07:55;;;;;;;9.60;2.70;;;13.40;87.70;;;;;;5033881;28;20575;-88
2022/09/15 06:10:23;;;;;;;8.17;1.97;;;13.40;87.70;;;;;;5033374;28;20199;-89
2022/09/15 06:12:52;;;;;;;5.00;1.53;;;13.20;87.00;;;;;;5033044;28;20192;-89
2022/09/15 06:15:22;;;;;;;12.40;1.90;;;13.20;87.60;;;;;;5033214;28;20269;-89
2022/09/15 06:17:48;;;;;;;10.37;2.20;;;13.20;87.90;;;;;;5033008;28;20295;-89
2022/09/15 06:20:14;;;;;;;9.80;2.50;;;13.10;88.10;;;;;;5032959;28;20181;-89
2022/09/15 06:22:40;;;;;;;11.87;2.57;;;13.10;88.30;;;;;;5034378;28;20657;-89
2022/09/15 06:25:06;;;;;;;14.23;2.60;;;13.10;88.60;;;;;;5034024;28;20303;-89
2022/09/15 06:27:32;;;;;;;9.20;2.00;;;13.10;88.80;;;;;;5032634;28;20259;-89
2022/09/15 06:29:58;;;;;;;11.93;2.00;;;13.10;88.80;;;;;;5034176;28;20176;-89
2022/09/15 06:32:23;;;;;;;14.20;1.93;;;13.20;89.10;;;;;;5033066;28;20173;-89
2022/09/15 06:34:49;;;;;;;7.73;2.30;;;13.20;89.00;;;;;;5033077;28;20173;-89
2022/09/15 06:37:15;;;;;;;6.87;1.60;;;13.30;88.80;;;;;;5032917;28;20670;-88
2022/09/15 06:39:42;;;;;;;14.43;2.97;;;13.50;88.50;;;;;;5032968;28;20196;-89
2022/09/15 06:42:08;;;;;;;12.47;2.50;;;13.60;88.40;;;;;;5032924;28;20223;-90
2022/09/15 06:44:34;;;;;;;17.67;3.20;;;13.70;88.50;;;;;;5033048;28;20651;-88
2022/09/15 06:47:00;;;;;;;10.27;2.33;;;13.80;88.30;;;;;;5033725;28;20200;-88
2022/09/15 06:49:25;;;;;;;11.93;3.70;;;13.80;87.70;;;;;;5033020;28;20707;-89
2022/09/15 06:51:51;;;;;;;8.53;2.20;;;13.80;86.70;;;;;;5032882;28;20183;-89
2022/09/15 06:54:16;;;;;;;10.70;2.00;;;13.90;86.20;;;;;;5032918;28;20231;-90
2022/09/15 06:56:42;;;;;;;10.77;1.90;;;14.00;86.30;;;;;;5034114;28;20201;-89
2022/09/15 06:59:11;;;;;;;9.73;2.23;;;14.10;86.00;;;;;;5033482;28;20189;-89
2022/09/15 07:01:37;;;;;;;11.53;2.07;;;14.20;86.20;;;;;;5032500;28;20204;-90
2022/09/15 07:04:04;;;;;;;12.03;2.23;;;14.00;85.80;;;;;;5034072;28;20228;-88
2022/09/15 07:06:31;;;;;;;10.33;2.37;;;13.70;84.90;;;;;;5034018;28;20196;-90
2022/09/15 07:08:58;;;;;;;12.67;2.10;;;13.80;86.10;;;;;;5032479;28;20173;-90
2022/09/15 07:11:24;;;;;;;9.33;2.37;;;13.70;86.00;;;;;;5033189;28;20226;-89
2022/09/15 07:13:50;;;;;;;11.77;2.10;;;13.80;86.70;;;;;;5033103;28;20784;-90
2022/09/15 07:16:17;;;;;;;6.17;1.80;;;13.90;86.80;;;;;;5036684;28;20581;-88
2022/09/15 07:18:44;;;;;;;16.87;2.40;;;13.90;86.80;;;;;;5037682;28;20168;-90
2022/09/15 07:21:12;;;;;;;10.23;2.70;;;13.90;87.00;;;;;;5036308;28;20180;-90
2022/09/15 07:23:38;;;;;;;8.17;1.80;;;13.90;87.30;;;;;;5036242;28;20187;-86
2022/09/15 07:26:06;;;;;;;9.67;2.10;;;14.00;87.50;;;;;;5036159;28;20193;-87
2022/09/15 07:28:32;;;;;;;10.77;2.07;;;14.00;87.60;;;;;;5037228;28;20639;-88
2022/09/15 07:30:58;;;;;;;8.17;2.10;;;14.10;88.00;;;;;;5036250;28;20263;-89
2022/09/15 07:33:23;;;;;;;13.50;2.20;;;14.10;88.10;;;;;;5036688;28;20172;-89
2022/09/15 07:35:49;;;;;;;10.07;2.07;;;14.10;88.00;;;;;;5037203;28;20247;-89
2022/09/15 07:38:14;;;;;;;8.83;2.53;;;14.20;88.10;;;;;;5035911;28;20647;-87
2022/09/15 07:40:40;;;;;;;12.43;2.53;;;14.20;87.90;;;;;;5035880;28;20211;-89
2022/09/15 07:43:06;;;;;;;9.20;2.00;;;14.30;87.80;;;;;;5036128;28;20200;-90
2022/09/15 07:45:34;;;;;;;11.63;2.40;;;14.20;87.70;;;;;;5035744;28;20211;-89
2022/09/15 07:48:00;;;;;;;10.67;2.13;;;14.40;87.90;;;;;;5035732;28;20683;-89
2022/09/15 07:50:26;;;;;;;9.70;2.17;;;14.40;87.60;;;;;;5035700;28;20187;-88
2022/09/15 07:52:55;;;;;;;9.30;1.80;;;14.60;86.70;;;;;;5037010;28;20648;-88
2022/09/15 07:55:21;;;;;;;14.23;3.23;;;14.80;85.30;;;;;;5035446;28;20598;-88
2022/09/15 07:57:46;;;;;;;8.97;2.33;;;14.80;85.40;;;;;;5035361;28;20287;-88
2022/09/15 08:00:13;;;;;;;9.23;2.20;;;14.90;86.10;;;;;;5035367;28;20554;-89
2022/09/15 08:02:39;;;;;;;7.80;1.70;;;14.80;86.50;;;;;;5036965;28;20172;-89
2022/09/15 08:05:05;;;;;;;9.83;2.23;;;15.00;86.10;;;;;;5035360;28;20187;-88
2022/09/15 08:07:31;;;;;;;5.25;1.73;;;15.20;84.70;;;;;;5035282;28;20231;-88
2022/09/15 08:09:56;;;;;;;8.98;2.20;;;15.30;85.20;;;;;;5035477;28;20647;-88
2022/09/15 08:12:22;;;;;;;8.43;2.13;;;15.30;84.00;;;;;;5035243;28;20243;-88
2022/09/15 08:14:47;;;;;;;13.47;1.80;;;15.30;82.80;;;;;;5036972;28;20595;-88
2022/09/15 08:17:13;;;;;;;9.13;1.80;;;15.30;83.30;;;;;;5035074;28;20197;-88
2022/09/15 08:19:38;;;;;;;11.13;1.92;;;15.20;83.90;;;;;;5035024;28;20185;-89
2022/09/15 08:22:04;;;;;;;6.07;1.60;;;15.30;84.10;;;;;;5035413;28;20264;-88
2022/09/15 08:24:30;;;;;;;12.13;1.98;;;15.40;84.10;;;;;;5034720;28;20181;-89
2022/09/15 08:26:56;;;;;;;8.10;1.85;;;15.60;84.50;;;;;;5035727;28;20231;-88
2022/09/15 08:29:21;;;;;;;13.57;2.03;;;15.50;83.90;;;;;;5035169;28;20200;-88
2022/09/15 08:31:47;;;;;;;9.95;2.17;;;15.60;84.10;;;;;;5034888;28;20255;-88
2022/09/15 08:34:15;;;;;;;11.15;1.85;;;15.70;84.20;;;;;;5036106;28;20252;-88
2022/09/15 08:36:41;;;;;;;8.30;2.10;;;15.80;83.20;;;;;;5036073;28;20235;-88
2022/09/15 08:39:06;;;;;;;10.70;2.15;;;16.00;82.70;;;;;;5034890;28;20693;-89
2022/09/15 08:41:39;;;;;;;8.68;1.75;;;16.00;82.40;;;;;;5036933;28;20157;-88
2022/09/15 08:44:20;;;;;;;7.13;1.80;;;15.80;81.50;;;;;;5035443;28;20184;-88
2022/09/15 08:47:03;;;;;;;7.28;1.58;;;16.00;80.60;;;;;;5035568;28;20282;-88
2022/09/15 08:49:37;;;;;;;6.25;1.50;;;16.20;80.00;;;;;;5035902;28;20574;-90
2022/09/15 08:52:09;;;;;;;6.10;1.25;;;16.30;78.10;;;;;;5037190;28;20661;-87
2022/09/15 08:54:36;;;;;;;9.93;1.83;;;16.50;78.40;;;;;;5035355;28;20627;-88
2022/09/15 08:57:05;;;;;;;8.23;1.40;;;16.60;75.70;;;;;;5036609;28;20203;-87
2022/09/15 08:59:34;;;;;;;5.43;1.60;;;16.80;74.00;;;;;;5036153;28;20546;-87
2022/09/15 09:02:26;;;;;;;5.10;1.60;;;16.40;73.30;;;;;;5034384;28;20208;-87
2022/09/15 09:05:28;;;;;;;10.93;2.20;;;15.90;76.40;;;;;;5026584;28;20184;-89
2022/09/15 09:08:18;;;;;;;10.00;1.75;;;15.80;77.80;;;;;;5033882;28;20208;-89
2022/09/15 09:11:09;;;;;;;8.82;1.80;;;15.60;80.20;;;;;;5035110;28;20176;-89
2022/09/15 09:13:58;;;;;;;7.10;1.80;;;15.40;80.50;;;;;;5034099;28;20627;-87
2022/09/15 09:16:57;;;;;;;10.77;2.10;;;15.10;81.10;;;;;;5034208;28;20247;-87
2022/09/15 09:19:59;;;;;;;7.30;1.80;;;15.00;83.10;;;;;;5035461;28;20218;-89
2022/09/15 09:22:31;;;;;;;9.65;1.80;;;14.80;84.10;;;;;;5035595;28;20199;-89
2022/09/15 09:24:59;;;;;;;9.63;3.10;;;14.60;83.50;;;;;;5033916;28;20215;-88
2022/09/15 09:27:33;;;;;;;7.20;2.20;;;14.70;84.20;;;;;;5034882;28;20288;-90
2022/09/15 09:30:16;;;;;;;5.00;1.60;;;14.90;84.00;;;;;;5033793;28;20263;-90
2022/09/15 09:33:19;;;;;;;9.30;2.50;;;15.20;83.60;;;;;;5033777;28;20165;-90
2022/09/15 09:35:50;;;;;;;8.57;1.88;;;15.50;83.30;;;;;;5033516;28;20208;-89
2022/09/15 09:38:34;;;;;;;9.85;2.00;;;15.80;82.90;;;;;;5034405;28;20160;-89
2022/09/15 09:41:00;;;;;;;8.82;1.73;;;16.10;81.70;;;;;;5034488;28;20172;-90
2022/09/15 09:43:27;;;;;;;6.00;1.42;;;16.30;78.90;;;;;;5035066;28;20188;-91
2022/09/15 09:45:53;;;;;;;12.88;3.00;;;16.50;79.20;;;;;;5033469;28;20694;-89
2022/09/15 09:48:27;;;;;;;7.25;1.85;;;15.70;80.70;;;;;;5033173;28;20209;-88
2022/09/15 09:50:54;;;;;;;5.78;2.17;;;15.40;81.00;;;;;;5035087;28;20180;-90
2022/09/15 09:53:27;;;;;;;6.25;1.88;;;15.40;82.80;;;;;;5035598;28;20239;-90
2022/09/15 09:55:54;;;;;;;11.25;2.25;;;15.00;82.60;;;;;;5033692;28;20679;-91
2022/09/15 09:58:24;;;;;;;8.85;2.08;;;15.00;83.00;;;;;;5034768;28;20272;-91
2022/09/15 10:00:51;;;;;;;5.05;1.50;;;15.20;83.40;;;;;;5033761;28;20173;-90
2022/09/15 10:03:20;;;;;;;7.25;2.00;;;15.50;83.20;;;;;;5033356;28;20173;-89
2022/09/15 10:06:11;;;;;;;5.30;1.85;;;15.60;82.70;;;;;;5038639;28;20246;-92
2022/09/15 10:08:50;;;;;;;5.47;1.23;;;15.70;83.30;;;;;;5054350;28;20180;-93
2022/09/15 10:11:18;;;;;;;11.75;1.88;;;15.80;78.70;;;;;;5051762;28;20177;-93
2022/09/15 10:13:53;;;;;;;4.40;1.10;;;16.10;76.60;;;;;;5049492;28;20177;-90
2022/09/15 10:16:20;;;;;;;3.60;1.38;;;16.20;74.80;;;;;;5047220;28;20212;-92
2022/09/15 10:18:48;;;;;;;3.15;1.20;;;16.30;71.60;;;;;;5052298;28;20176;-93
2022/09/15 10:21:14;;;;;;;2.28;0.90;;;16.60;72.50;;;;;;5042480;28;20302;-92
2022/09/15 10:23:41;;;;;;;7.28;1.30;;;16.80;73.60;;;;;;5048673;28;20177;-93
2022/09/15 10:26:33;;;;;;;8.07;1.65;;;17.00;73.40;;;;;;5044105;28;20205;-91
2022/09/15 10:29:25;;;;;;;9.68;1.60;;;17.10;73.80;;;;;;5048585;28;20622;-90
2022/09/15 10:31:51;;;;;;;5.68;1.52;;;17.20;71.20;;;;;;5036966;28;20197;-91
2022/09/15 10:34:24;;;;;;;9.80;1.42;;;17.00;71.20;;;;;;5033352;28;20181;-90
2022/09/15 10:36:53;;;;;;;9.65;1.70;;;17.00;71.00;;;;;;5035420;28;20197;-89
2022/09/15 10:39:40;;;;;;;7.10;1.67;;;17.10;70.40;;;;;;5033373;28;20196;-89
2022/09/15 10:42:27;;;;;;;5.63;1.67;;;17.20;69.10;;;;;;5032853;28;20548;-89
2022/09/15 10:45:16;;;;;;;5.47;1.70;;;17.10;69.00;;;;;;5032651;28;20192;-89
2022/09/15 10:48:01;;;;;;;7.93;1.60;;;17.30;69.80;;;;;;5033708;28;20209;-89
2022/09/15 10:50:49;;;;;;;5.32;1.60;;;17.30;71.20;;;;;;5032982;28;20169;-90
2022/09/15 10:53:45;;;;;;;5.55;1.48;;;16.80;68.80;;;;;;5033805;28;20165;-89
2022/09/15 10:56:31;;;;;;;5.63;1.45;;;16.80;71.10;;;;;;5032742;28;20203;-89
2022/09/15 10:59:19;;;;;;;5.88;1.88;;;17.20;72.00;;;;;;5032409;28;20165;-90
2022/09/15 11:02:15;;;;;;;6.97;2.15;;;17.10;71.10;;;;;;5032414;28;20215;-89
2022/09/15 11:04:56;;;;;;;8.45;1.52;;;16.70;72.40;;;;;;5032256;28;20545;-89
2022/09/15 11:07:42;;;;;;;6.93;1.33;;;16.70;72.60;;;;;;5032676;28;20200;-89
2022/09/15 11:10:29;;;;;;;6.97;1.60;;;17.10;73.30;;;;;;5032343;28;20267;-89
2022/09/15 11:13:05;;;;;;;5.55;1.85;;;17.50;73.00;;;;;;5032405;28;20215;-90
2022/09/15 11:15:49;;;;;;;6.53;1.80;;;18.00;72.30;;;;;;5033201;28;20164;-90
2022/09/15 11:18:35;;;;;;;14.25;2.10;;;17.90;72.30;;;;;;5032082;28;20642;-89
2022/09/15 11:21:04;;;;;;;6.30;1.52;;;17.70;70.40;;;;;;5033857;28;20543;-90
2022/09/15 11:23:36;;;;;;;4.82;1.45;;;17.00;69.60;;;;;;5033417;28;20183;-89
2022/09/15 11:26:42;;;;;;;5.60;1.85;;;16.90;71.60;;;;;;5033740;28;20209;-86
2022/09/15 11:29:41;;;;;;;4.78;1.63;;;16.90;72.10;;;;;;5031564;28;20211;-88
2022/09/15 11:32:13;;;;;;;5.00;1.60;;;16.90;71.60;;;;;;5033692;28;20554;-88
2022/09/15 11:34:48;;;;;;;6.57;1.75;;;17.00;72.10;;;;;;5033485;28;20580;-89
2022/09/15 11:37:20;;;;;;;6.53;1.38;;;17.10;71.60;;;;;;5034324;28;20187;-91
2022/09/15 11:39:51;;;;;;;6.82;1.48;;;17.20;69.00;;;;;;5037712;28;20196;-91
2022/09/15 11:42:32;;;;;;;7.55;1.48;;;17.00;68.10;;;;;;5036564;28;20504;-87
2022/09/15 11:44:59;;;;;;;6.43;2.85;;;17.00;66.70;;;;;;5032167;28;20173;-89
2022/09/15 11:47:32;;;;;;;8.63;1.50;;;17.10;66.30;;;;;;5031547;28;20212;-89
2022/09/15 11:50:29;;;;;;;7.90;1.45;;;17.10;66.80;;;;;;5032225;28;20161;-88
2022/09/15 11:53:23;;;;;;;7.50;2.00;;;17.20;68.10;;;;;;5031115;28;20184;-88
2022/09/15 11:55:59;;;;;;;7.78;1.55;;;17.70;68.30;;;;;;5031642;28;20223;-88
2022/09/15 11:58:43;;;;;;;6.72;1.65;;;17.90;65.80;;;;;;5033233;28;20169;-87
2022/09/15 12:01:21;;;;;;;5.63;1.35;;;18.30;65.20;;;;;;5035300;28;20183;-90
2022/09/15 12:04:09;;;;;;;4.90;1.27;;;18.40;63.90;;;;;;5036441;28;20686;-87
2022/09/15 12:06:59;;;;;;;4.28;1.15;;;18.50;61.90;;;;;;5035394;28;20211;-89
2022/09/15 12:09:25;;;;;;;5.25;1.70;;;18.20;60.60;;;;;;5036687;28;20655;-88
2022/09/15 12:11:57;;;;;;;6.57;1.60;;;18.20;62.30;;;;;;5035197;28;20183;-89
2022/09/15 12:14:36;;;;;;;5.35;1.42;;;18.40;60.70;;;;;;5035535;28;20173;-88
2022/09/15 12:17:04;;;;;;;6.30;1.02;;;18.40;61.10;;;;;;5036368;28;20266;-88
2022/09/15 12:19:40;;;;;;;2.70;1.02;;;18.20;59.30;;;;;;5035177;28;20180;-87
2022/09/15 12:22:32;;;;;;;7.78;1.45;;;18.30;60.90;;;;;;5036334;28;20507;-88
2022/09/15 12:25:10;;;;;;;4.25;1.42;;;18.50;60.50;;;;;;5032850;28;20184;-88
2022/09/15 12:27:36;;;;;;;7.45;1.60;;;18.70;58.60;;;;;;5036542;28;20283;-89
2022/09/15 12:30:05;;;;;;;7.90;1.73;;;18.80;58.80;;;;;;5036717;28;20303;-91
2022/09/15 12:32:34;;;;;;;7.15;1.60;;;18.50;60.00;;;;;;5037812;28;20248;-90
2022/09/15 12:35:05;;;;;;;7.78;1.77;;;18.20;62.20;;;;;;5034600;28;20179;-89
2022/09/15 12:37:35;;;;;;;4.38;1.45;;;18.20;60.90;;;;;;5034400;28;20193;-89
2022/09/15 12:40:01;;;;;;;7.60;1.95;;;18.20;62.80;;;;;;5036243;28;20184;-90
2022/09/15 12:42:30;;;;;;;5.55;1.38;;;17.90;61.50;;;;;;5034405;28;20207;-90
2022/09/15 12:45:01;;;;;;;7.82;1.58;;;18.20;62.00;;;;;;5034540;28;20227;-89
2022/09/15 12:47:35;;;;;;;5.65;1.27;;;18.10;62.20;;;;;;5034353;28;20236;-89
2022/09/15 12:50:07;;;;;;;7.43;1.20;;;18.20;62.70;;;;;;5035341;28;20168;-89
2022/09/15 12:52:50;;;;;;;11.85;1.85;;;18.10;62.60;;;;;;5035532;28;20628;-89
2022/09/15 12:55:28;;;;;;;11.73;1.70;;;17.90;62.80;;;;;;5034294;28;20173;-89
2022/09/15 12:58:00;;;;;;;8.90;1.65;;;17.30;64.20;;;;;;5034224;28;20199;-89
2022/09/15 13:00:27;;;;;;;7.75;1.55;;;17.10;65.30;;;;;;5034413;28;20173;-89
2022/09/15 13:02:54;;;;;;;7.18;1.13;;;17.30;66.30;;;;;;5034214;28;20554;-89
2022/09/15 13:05:41;;;;;;;7.72;1.83;;;17.10;63.70;;;;;;5034628;28;20583;-89
2022/09/15 13:08:34;;;;;;;7.78;1.55;;;16.90;66.40;;;;;;5035437;28;20266;-89